sensor_id;sensor_type;location;lat;lon;timestamp;P1;durP1;ratioP1;P2;durP2;ratioP2
75698;SDS011;64313;51.018;13.742;2024-03-22T00:00:01;9.20;;;4.30;;
75698;SDS011;64313;51.018;13.742;2024-03-22T00:02:37;12.45;;;5.07;;
75698;SDS011;64313;51.018;13.742;2024-03-22T00:05:03;9.80;;;4.88;;
75698;SDS011;64313;51.018;13.742;2024-03-22T00:07:29;9.48;;;4.90;;
75698;SDS011;64313;51.018;13.742;2024-03-22T00:09:54;9.27;;;4.93;;
75698;SDS011;64313;51.018;13.742;2024-03-22T00:12:20;11.70;;;4.78;;
75698;SDS011;64313;51.018;13.742;2024-03-22T00:14:45;9.38;;;5.07;;
75698;SDS011;64313;51.018;13.742;2024-03-22T00:17:10;11.15;;;5.05;;
75698;SDS011;64313;51.018;13.742;2024-03-22T00:19:36;10.13;;;5.35;;
75698;SDS011;64313;51.018;13.742;2024-03-22T00:22:01;11.93;;;5.40;;
75698;SDS011;64313;51.018;13.742;2024-03-22T00:24:26;10.15;;;5.47;;
75698;SDS011;64313;51.018;13.742;2024-03-22T00:26:52;10.88;;;5.65;;
75698;SDS011;64313;51.018;13.742;2024-03-22T00:29:17;10.80;;;5.55;;
75698;SDS011;64313;51.018;13.742;2024-03-22T00:31:43;10.73;;;5.50;;
75698;SDS011;64313;51.018;13.742;2024-03-22T00:34:08;12.82;;;5.55;;
75698;SDS011;64313;51.018;13.742;2024-03-22T00:36:33;11.63;;;5.75;;
75698;SDS011;64313;51.018;13.742;2024-03-22T00:38:59;11.38;;;5.63;;
75698;SDS011;64313;51.018;13.742;2024-03-22T00:41:24;11.65;;;5.72;;
75698;SDS011;64313;51.018;13.742;2024-03-22T00:43:49;12.55;;;5.82;;
75698;SDS011;64313;51.018;13.742;2024-03-22T00:46:15;11.68;;;5.53;;
75698;SDS011;64313;51.018;13.742;2024-03-22T00:48:40;9.85;;;5.43;;
75698;SDS011;64313;51.018;13.742;2024-03-22T00:51:05;12.68;;;5.57;;
75698;SDS011;64313;51.018;13.742;2024-03-22T00:53:31;11.93;;;5.57;;
75698;SDS011;64313;51.018;13.742;2024-03-22T00:55:56;10.40;;;4.95;;
75698;SDS011;64313;51.018;13.742;2024-03-22T00:58:24;11.95;;;5.55;;
75698;SDS011;64313;51.018;13.742;2024-03-22T01:00:49;9.85;;;5.30;;
75698;SDS011;64313;51.018;13.742;2024-03-22T01:03:14;13.25;;;5.90;;
75698;SDS011;64313;51.018;13.742;2024-03-22T01:05:40;11.98;;;6.10;;
75698;SDS011;64313;51.018;13.742;2024-03-22T01:08:07;16.48;;;6.25;;
75698;SDS011;64313;51.018;13.742;2024-03-22T01:10:32;12.45;;;6.22;;
75698;SDS011;64313;51.018;13.742;2024-03-22T01:12:58;13.80;;;5.93;;
75698;SDS011;64313;51.018;13.742;2024-03-22T01:15:24;10.25;;;5.43;;
75698;SDS011;64313;51.018;13.742;2024-03-22T01:17:50;12.57;;;5.95;;
75698;SDS011;64313;51.018;13.742;2024-03-22T01:20:15;11.95;;;5.75;;
75698;SDS011;64313;51.018;13.742;2024-03-22T01:22:40;11.55;;;5.55;;
75698;SDS011;64313;51.018;13.742;2024-03-22T01:25:06;11.40;;;5.57;;
75698;SDS011;64313;51.018;13.742;2024-03-22T01:27:32;11.00;;;5.85;;
75698;SDS011;64313;51.018;13.742;2024-03-22T01:29:57;13.55;;;5.45;;
75698;SDS011;64313;51.018;13.742;2024-03-22T01:32:22;11.32;;;5.70;;
75698;SDS011;64313;51.018;13.742;2024-03-22T01:34:48;12.35;;;5.75;;
75698;SDS011;64313;51.018;13.742;2024-03-22T01:37:13;13.10;;;5.65;;
75698;SDS011;64313;51.018;13.742;2024-03-22T01:39:38;13.70;;;5.97;;
75698;SDS011;64313;51.018;13.742;2024-03-22T01:42:04;10.98;;;5.32;;
75698;SDS011;64313;51.018;13.742;2024-03-22T01:44:31;12.38;;;5.85;;
75698;SDS011;64313;51.018;13.742;2024-03-22T01:46:57;13.55;;;5.57;;
75698;SDS011;64313;51.018;13.742;2024-03-22T01:49:23;13.25;;;6.35;;
75698;SDS011;64313;51.018;13.742;2024-03-22T01:51:50;10.40;;;5.35;;
75698;SDS011;64313;51.018;13.742;2024-03-22T01:54:16;11.88;;;5.88;;
75698;SDS011;64313;51.018;13.742;2024-03-22T01:56:41;11.88;;;5.82;;
75698;SDS011;64313;51.018;13.742;2024-03-22T01:59:07;10.43;;;4.90;;
75698;SDS011;64313;51.018;13.742;2024-03-22T02:01:33;13.10;;;6.28;;
75698;SDS011;64313;51.018;13.742;2024-03-22T02:04:00;11.10;;;5.40;;
75698;SDS011;64313;51.018;13.742;2024-03-22T02:06:26;11.25;;;5.60;;
75698;SDS011;64313;51.018;13.742;2024-03-22T02:08:52;11.57;;;5.28;;
75698;SDS011;64313;51.018;13.742;2024-03-22T02:11:17;11.02;;;5.13;;
75698;SDS011;64313;51.018;13.742;2024-03-22T02:13:43;11.43;;;5.25;;
75698;SDS011;64313;51.018;13.742;2024-03-22T02:16:09;11.98;;;5.50;;
75698;SDS011;64313;51.018;13.742;2024-03-22T02:18:34;11.25;;;5.47;;
75698;SDS011;64313;51.018;13.742;2024-03-22T02:21:00;12.05;;;5.68;;
75698;SDS011;64313;51.018;13.742;2024-03-22T02:23:32;11.95;;;5.47;;
75698;SDS011;64313;51.018;13.742;2024-03-22T02:25:58;11.85;;;5.53;;
75698;SDS011;64313;51.018;13.742;2024-03-22T02:28:24;12.07;;;5.60;;
75698;SDS011;64313;51.018;13.742;2024-03-22T02:34:11;11.85;;;5.65;;
75698;SDS011;64313;51.018;13.742;2024-03-22T02:36:36;12.90;;;5.93;;
75698;SDS011;64313;51.018;13.742;2024-03-22T02:39:02;11.05;;;6.00;;
75698;SDS011;64313;51.018;13.742;2024-03-22T02:41:27;11.93;;;6.30;;
75698;SDS011;64313;51.018;13.742;2024-03-22T02:43:52;13.40;;;6.43;;
75698;SDS011;64313;51.018;13.742;2024-03-22T02:46:17;13.55;;;6.55;;
75698;SDS011;64313;51.018;13.742;2024-03-22T02:48:43;13.05;;;6.38;;
75698;SDS011;64313;51.018;13.742;2024-03-22T02:51:08;13.25;;;6.25;;
75698;SDS011;64313;51.018;13.742;2024-03-22T02:53:33;14.73;;;6.85;;
75698;SDS011;64313;51.018;13.742;2024-03-22T02:55:59;14.30;;;7.50;;
75698;SDS011;64313;51.018;13.742;2024-03-22T02:58:26;14.73;;;6.85;;
75698;SDS011;64313;51.018;13.742;2024-03-22T03:00:51;14.43;;;6.93;;
75698;SDS011;64313;51.018;13.742;2024-03-22T03:03:16;14.63;;;7.55;;
75698;SDS011;64313;51.018;13.742;2024-03-22T03:05:42;14.57;;;7.22;;
75698;SDS011;64313;51.018;13.742;2024-03-22T03:08:07;14.13;;;6.75;;
75698;SDS011;64313;51.018;13.742;2024-03-22T03:10:32;14.80;;;6.82;;
75698;SDS011;64313;51.018;13.742;2024-03-22T03:12:58;15.73;;;7.00;;
75698;SDS011;64313;51.018;13.742;2024-03-22T03:15:23;14.68;;;7.60;;
75698;SDS011;64313;51.018;13.742;2024-03-22T03:17:48;13.57;;;6.75;;
75698;SDS011;64313;51.018;13.742;2024-03-22T03:20:14;14.70;;;6.72;;
75698;SDS011;64313;51.018;13.742;2024-03-22T03:22:40;14.07;;;7.05;;
75698;SDS011;64313;51.018;13.742;2024-03-22T03:25:05;15.73;;;8.00;;
75698;SDS011;64313;51.018;13.742;2024-03-22T03:27:31;14.23;;;7.18;;
75698;SDS011;64313;51.018;13.742;2024-03-22T03:29:57;15.40;;;7.32;;
75698;SDS011;64313;51.018;13.742;2024-03-22T03:32:22;17.02;;;7.65;;
75698;SDS011;64313;51.018;13.742;2024-03-22T03:34:47;15.77;;;7.72;;
75698;SDS011;64313;51.018;13.742;2024-03-22T03:37:13;15.20;;;7.20;;
75698;SDS011;64313;51.018;13.742;2024-03-22T03:39:39;15.30;;;7.45;;
75698;SDS011;64313;51.018;13.742;2024-03-22T03:42:04;17.13;;;7.72;;
75698;SDS011;64313;51.018;13.742;2024-03-22T03:44:30;16.13;;;7.38;;
75698;SDS011;64313;51.018;13.742;2024-03-22T03:46:55;16.02;;;7.82;;
75698;SDS011;64313;51.018;13.742;2024-03-22T03:49:21;17.10;;;7.60;;
75698;SDS011;64313;51.018;13.742;2024-03-22T03:51:46;18.05;;;7.97;;
75698;SDS011;64313;51.018;13.742;2024-03-22T03:54:11;16.35;;;7.38;;
75698;SDS011;64313;51.018;13.742;2024-03-22T03:56:37;16.40;;;8.10;;
75698;SDS011;64313;51.018;13.742;2024-03-22T03:59:02;16.52;;;8.27;;
75698;SDS011;64313;51.018;13.742;2024-03-22T04:01:27;17.27;;;7.93;;
75698;SDS011;64313;51.018;13.742;2024-03-22T04:03:52;17.40;;;7.80;;
75698;SDS011;64313;51.018;13.742;2024-03-22T04:06:18;17.30;;;7.93;;
75698;SDS011;64313;51.018;13.742;2024-03-22T04:08:43;17.83;;;8.18;;
75698;SDS011;64313;51.018;13.742;2024-03-22T04:11:09;15.45;;;8.13;;
75698;SDS011;64313;51.018;13.742;2024-03-22T04:13:34;18.63;;;7.72;;
75698;SDS011;64313;51.018;13.742;2024-03-22T04:15:59;15.25;;;7.55;;
75698;SDS011;64313;51.018;13.742;2024-03-22T04:18:25;15.48;;;7.32;;
75698;SDS011;64313;51.018;13.742;2024-03-22T04:20:57;14.95;;;7.50;;
75698;SDS011;64313;51.018;13.742;2024-03-22T04:23:24;17.55;;;7.55;;
75698;SDS011;64313;51.018;13.742;2024-03-22T04:25:54;13.65;;;7.22;;
75698;SDS011;64313;51.018;13.742;2024-03-22T04:28:20;14.27;;;7.65;;
75698;SDS011;64313;51.018;13.742;2024-03-22T04:30:58;16.05;;;7.30;;
75698;SDS011;64313;51.018;13.742;2024-03-22T04:33:27;14.68;;;7.15;;
75698;SDS011;64313;51.018;13.742;2024-03-22T04:35:54;14.60;;;6.88;;
75698;SDS011;64313;51.018;13.742;2024-03-22T04:38:21;17.40;;;7.07;;
75698;SDS011;64313;51.018;13.742;2024-03-22T04:40:47;14.55;;;6.65;;
75698;SDS011;64313;51.018;13.742;2024-03-22T04:43:12;14.48;;;6.47;;
75698;SDS011;64313;51.018;13.742;2024-03-22T04:45:37;11.18;;;5.93;;
75698;SDS011;64313;51.018;13.742;2024-03-22T04:48:03;10.80;;;5.68;;
75698;SDS011;64313;51.018;13.742;2024-03-22T04:50:30;11.95;;;5.68;;
75698;SDS011;64313;51.018;13.742;2024-03-22T04:52:56;10.93;;;5.53;;
75698;SDS011;64313;51.018;13.742;2024-03-22T04:55:21;12.57;;;5.63;;
75698;SDS011;64313;51.018;13.742;2024-03-22T04:57:47;13.32;;;5.68;;
75698;SDS011;64313;51.018;13.742;2024-03-22T05:00:13;12.48;;;6.00;;
75698;SDS011;64313;51.018;13.742;2024-03-22T05:02:40;10.50;;;5.30;;
75698;SDS011;64313;51.018;13.742;2024-03-22T05:05:05;9.07;;;4.88;;
75698;SDS011;64313;51.018;13.742;2024-03-22T05:07:31;9.63;;;4.75;;
75698;SDS011;64313;51.018;13.742;2024-03-22T05:09:56;10.48;;;5.07;;
75698;SDS011;64313;51.018;13.742;2024-03-22T05:12:22;12.30;;;5.25;;
75698;SDS011;64313;51.018;13.742;2024-03-22T05:14:47;10.50;;;5.30;;
75698;SDS011;64313;51.018;13.742;2024-03-22T05:17:12;10.30;;;4.80;;
75698;SDS011;64313;51.018;13.742;2024-03-22T05:19:38;9.55;;;4.97;;
75698;SDS011;64313;51.018;13.742;2024-03-22T05:22:04;9.80;;;5.00;;
75698;SDS011;64313;51.018;13.742;2024-03-22T05:24:31;11.18;;;5.18;;
75698;SDS011;64313;51.018;13.742;2024-03-22T05:26:56;10.27;;;4.80;;
75698;SDS011;64313;51.018;13.742;2024-03-22T05:29:22;10.38;;;5.10;;
75698;SDS011;64313;51.018;13.742;2024-03-22T05:31:48;11.95;;;5.82;;
75698;SDS011;64313;51.018;13.742;2024-03-22T05:34:16;11.60;;;6.13;;
75698;SDS011;64313;51.018;13.742;2024-03-22T05:36:41;11.52;;;5.75;;
75698;SDS011;64313;51.018;13.742;2024-03-22T05:39:07;15.27;;;6.03;;
75698;SDS011;64313;51.018;13.742;2024-03-22T05:41:33;10.07;;;5.35;;
75698;SDS011;64313;51.018;13.742;2024-03-22T05:43:58;13.27;;;6.20;;
75698;SDS011;64313;51.018;13.742;2024-03-22T05:46:23;11.63;;;5.63;;
75698;SDS011;64313;51.018;13.742;2024-03-22T05:48:49;9.82;;;5.15;;
75698;SDS011;64313;51.018;13.742;2024-03-22T05:51:15;11.90;;;5.43;;
75698;SDS011;64313;51.018;13.742;2024-03-22T05:53:41;11.15;;;4.70;;
75698;SDS011;64313;51.018;13.742;2024-03-22T05:56:07;11.90;;;4.95;;
75698;SDS011;64313;51.018;13.742;2024-03-22T05:58:32;10.70;;;4.90;;
75698;SDS011;64313;51.018;13.742;2024-03-22T06:00:58;9.48;;;4.78;;
75698;SDS011;64313;51.018;13.742;2024-03-22T06:03:23;7.47;;;3.75;;
75698;SDS011;64313;51.018;13.742;2024-03-22T06:05:48;8.25;;;3.65;;
75698;SDS011;64313;51.018;13.742;2024-03-22T06:08:14;9.23;;;3.65;;
75698;SDS011;64313;51.018;13.742;2024-03-22T06:10:44;6.85;;;3.25;;
75698;SDS011;64313;51.018;13.742;2024-03-22T06:13:10;7.82;;;3.30;;
75698;SDS011;64313;51.018;13.742;2024-03-22T06:15:35;8.07;;;3.13;;
75698;SDS011;64313;51.018;13.742;2024-03-22T06:18:00;7.13;;;2.97;;
75698;SDS011;64313;51.018;13.742;2024-03-22T06:20:26;7.20;;;3.20;;
75698;SDS011;64313;51.018;13.742;2024-03-22T06:22:51;6.88;;;2.97;;
75698;SDS011;64313;51.018;13.742;2024-03-22T06:25:16;7.82;;;3.30;;
75698;SDS011;64313;51.018;13.742;2024-03-22T06:27:42;7.00;;;3.10;;
75698;SDS011;64313;51.018;13.742;2024-03-22T06:30:07;7.35;;;2.95;;
75698;SDS011;64313;51.018;13.742;2024-03-22T06:32:33;6.18;;;2.90;;
75698;SDS011;64313;51.018;13.742;2024-03-22T06:34:58;7.40;;;3.03;;
75698;SDS011;64313;51.018;13.742;2024-03-22T06:37:23;9.38;;;3.30;;
75698;SDS011;64313;51.018;13.742;2024-03-22T06:39:49;8.93;;;3.13;;
75698;SDS011;64313;51.018;13.742;2024-03-22T06:42:14;7.05;;;3.15;;
75698;SDS011;64313;51.018;13.742;2024-03-22T06:44:39;8.82;;;3.50;;
75698;SDS011;64313;51.018;13.742;2024-03-22T06:47:05;7.65;;;3.10;;
75698;SDS011;64313;51.018;13.742;2024-03-22T06:49:30;7.03;;;3.35;;
75698;SDS011;64313;51.018;13.742;2024-03-22T06:51:55;9.18;;;3.78;;
75698;SDS011;64313;51.018;13.742;2024-03-22T06:54:21;8.80;;;3.60;;
75698;SDS011;64313;51.018;13.742;2024-03-22T06:56:46;8.10;;;3.80;;
75698;SDS011;64313;51.018;13.742;2024-03-22T06:59:12;7.75;;;3.85;;
75698;SDS011;64313;51.018;13.742;2024-03-22T07:01:37;8.38;;;3.58;;
75698;SDS011;64313;51.018;13.742;2024-03-22T07:04:02;8.02;;;3.50;;
75698;SDS011;64313;51.018;13.742;2024-03-22T07:06:28;9.07;;;3.83;;
75698;SDS011;64313;51.018;13.742;2024-03-22T07:08:53;8.90;;;3.63;;
75698;SDS011;64313;51.018;13.742;2024-03-22T07:11:18;7.95;;;3.92;;
75698;SDS011;64313;51.018;13.742;2024-03-22T07:13:44;8.00;;;3.95;;
75698;SDS011;64313;51.018;13.742;2024-03-22T07:16:09;8.90;;;3.65;;
75698;SDS011;64313;51.018;13.742;2024-03-22T07:18:35;7.95;;;3.65;;
75698;SDS011;64313;51.018;13.742;2024-03-22T07:21:00;10.00;;;3.60;;
75698;SDS011;64313;51.018;13.742;2024-03-22T07:23:27;8.05;;;3.60;;
75698;SDS011;64313;51.018;13.742;2024-03-22T07:25:52;9.30;;;3.63;;
75698;SDS011;64313;51.018;13.742;2024-03-22T07:28:18;8.90;;;4.43;;
75698;SDS011;64313;51.018;13.742;2024-03-22T07:30:43;9.15;;;3.33;;
75698;SDS011;64313;51.018;13.742;2024-03-22T07:33:10;8.10;;;3.63;;
75698;SDS011;64313;51.018;13.742;2024-03-22T07:35:38;6.68;;;3.38;;
75698;SDS011;64313;51.018;13.742;2024-03-22T07:38:04;8.05;;;3.90;;
75698;SDS011;64313;51.018;13.742;2024-03-22T07:40:29;8.68;;;3.88;;
75698;SDS011;64313;51.018;13.742;2024-03-22T07:42:54;8.95;;;3.97;;
75698;SDS011;64313;51.018;13.742;2024-03-22T07:45:20;7.72;;;3.88;;
75698;SDS011;64313;51.018;13.742;2024-03-22T07:47:45;8.13;;;3.63;;
75698;SDS011;64313;51.018;13.742;2024-03-22T07:50:10;8.23;;;4.00;;
75698;SDS011;64313;51.018;13.742;2024-03-22T07:52:36;8.85;;;4.20;;
75698;SDS011;64313;51.018;13.742;2024-03-22T07:55:01;8.95;;;4.07;;
75698;SDS011;64313;51.018;13.742;2024-03-22T07:57:28;10.70;;;4.07;;
75698;SDS011;64313;51.018;13.742;2024-03-22T07:59:56;10.35;;;4.15;;
75698;SDS011;64313;51.018;13.742;2024-03-22T08:02:22;12.55;;;5.00;;
75698;SDS011;64313;51.018;13.742;2024-03-22T08:04:48;9.02;;;4.47;;
75698;SDS011;64313;51.018;13.742;2024-03-22T08:07:14;10.15;;;4.60;;
75698;SDS011;64313;51.018;13.742;2024-03-22T08:09:39;10.90;;;4.68;;
75698;SDS011;64313;51.018;13.742;2024-03-22T08:12:05;10.57;;;4.63;;
75698;SDS011;64313;51.018;13.742;2024-03-22T08:14:31;11.30;;;4.72;;
75698;SDS011;64313;51.018;13.742;2024-03-22T08:16:56;11.77;;;5.28;;
75698;SDS011;64313;51.018;13.742;2024-03-22T08:19:22;12.10;;;5.40;;
75698;SDS011;64313;51.018;13.742;2024-03-22T08:21:47;14.90;;;5.53;;
75698;SDS011;64313;51.018;13.742;2024-03-22T08:24:12;11.23;;;4.90;;
75698;SDS011;64313;51.018;13.742;2024-03-22T08:26:37;10.70;;;4.70;;
75698;SDS011;64313;51.018;13.742;2024-03-22T08:29:03;14.95;;;5.40;;
75698;SDS011;64313;51.018;13.742;2024-03-22T08:31:28;13.57;;;5.10;;
75698;SDS011;64313;51.018;13.742;2024-03-22T08:33:53;13.25;;;5.55;;
75698;SDS011;64313;51.018;13.742;2024-03-22T08:36:21;13.40;;;5.70;;
75698;SDS011;64313;51.018;13.742;2024-03-22T08:38:46;12.10;;;5.10;;
75698;SDS011;64313;51.018;13.742;2024-03-22T08:41:12;10.98;;;4.85;;
75698;SDS011;64313;51.018;13.742;2024-03-22T08:43:37;10.15;;;4.63;;
75698;SDS011;64313;51.018;13.742;2024-03-22T08:46:02;10.90;;;4.88;;
75698;SDS011;64313;51.018;13.742;2024-03-22T08:48:28;9.82;;;4.43;;
75698;SDS011;64313;51.018;13.742;2024-03-22T08:50:54;10.95;;;4.78;;
75698;SDS011;64313;51.018;13.742;2024-03-22T08:53:19;10.20;;;4.38;;
75698;SDS011;64313;51.018;13.742;2024-03-22T08:55:45;10.50;;;4.50;;
75698;SDS011;64313;51.018;13.742;2024-03-22T08:58:11;9.57;;;3.95;;
75698;SDS011;64313;51.018;13.742;2024-03-22T09:00:37;9.32;;;4.25;;
75698;SDS011;64313;51.018;13.742;2024-03-22T09:03:03;9.55;;;4.18;;
75698;SDS011;64313;51.018;13.742;2024-03-22T09:05:28;10.63;;;4.25;;
75698;SDS011;64313;51.018;13.742;2024-03-22T09:07:53;10.13;;;4.43;;
75698;SDS011;64313;51.018;13.742;2024-03-22T09:10:20;15.63;;;6.53;;
75698;SDS011;64313;51.018;13.742;2024-03-22T09:12:46;16.98;;;7.15;;
75698;SDS011;64313;51.018;13.742;2024-03-22T09:15:11;9.98;;;4.30;;
75698;SDS011;64313;51.018;13.742;2024-03-22T09:17:36;13.43;;;4.65;;
75698;SDS011;64313;51.018;13.742;2024-03-22T09:20:02;7.95;;;3.72;;
75698;SDS011;64313;51.018;13.742;2024-03-22T09:22:29;7.97;;;3.63;;
75698;SDS011;64313;51.018;13.742;2024-03-22T09:24:54;7.25;;;3.17;;
75698;SDS011;64313;51.018;13.742;2024-03-22T09:27:19;7.50;;;3.30;;
75698;SDS011;64313;51.018;13.742;2024-03-22T09:29:45;9.65;;;3.45;;
75698;SDS011;64313;51.018;13.742;2024-03-22T09:32:10;7.72;;;3.15;;
75698;SDS011;64313;51.018;13.742;2024-03-22T09:34:36;7.13;;;3.10;;
75698;SDS011;64313;51.018;13.742;2024-03-22T09:37:01;7.00;;;2.90;;
75698;SDS011;64313;51.018;13.742;2024-03-22T09:39:27;7.25;;;2.78;;
75698;SDS011;64313;51.018;13.742;2024-03-22T09:41:52;6.90;;;2.92;;
75698;SDS011;64313;51.018;13.742;2024-03-22T09:44:22;7.07;;;2.70;;
75698;SDS011;64313;51.018;13.742;2024-03-22T09:46:50;8.20;;;3.10;;
75698;SDS011;64313;51.018;13.742;2024-03-22T09:49:16;7.97;;;2.83;;
75698;SDS011;64313;51.018;13.742;2024-03-22T09:51:42;8.00;;;2.30;;
75698;SDS011;64313;51.018;13.742;2024-03-22T09:54:11;7.85;;;2.55;;
75698;SDS011;64313;51.018;13.742;2024-03-22T09:56:40;6.78;;;2.70;;
75698;SDS011;64313;51.018;13.742;2024-03-22T09:59:07;5.60;;;2.35;;
75698;SDS011;64313;51.018;13.742;2024-03-22T10:01:33;5.90;;;2.45;;
75698;SDS011;64313;51.018;13.742;2024-03-22T10:03:59;7.15;;;2.65;;
75698;SDS011;64313;51.018;13.742;2024-03-22T10:06:25;5.82;;;2.30;;
75698;SDS011;64313;51.018;13.742;2024-03-22T10:08:50;5.90;;;2.30;;
75698;SDS011;64313;51.018;13.742;2024-03-22T10:11:16;9.55;;;2.70;;
75698;SDS011;64313;51.018;13.742;2024-03-22T10:13:41;5.30;;;2.15;;
75698;SDS011;64313;51.018;13.742;2024-03-22T10:16:16;5.75;;;2.50;;
75698;SDS011;64313;51.018;13.742;2024-03-22T10:18:41;9.05;;;2.83;;
75698;SDS011;64313;51.018;13.742;2024-03-22T10:21:07;6.60;;;2.40;;
75698;SDS011;64313;51.018;13.742;2024-03-22T10:23:32;5.45;;;2.40;;
75698;SDS011;64313;51.018;13.742;2024-03-22T10:25:58;7.03;;;2.70;;
75698;SDS011;64313;51.018;13.742;2024-03-22T10:28:27;6.40;;;2.65;;
75698;SDS011;64313;51.018;13.742;2024-03-22T10:30:53;6.72;;;2.70;;
75698;SDS011;64313;51.018;13.742;2024-03-22T10:33:19;6.47;;;2.80;;
75698;SDS011;64313;51.018;13.742;2024-03-22T10:35:47;6.93;;;2.53;;
75698;SDS011;64313;51.018;13.742;2024-03-22T10:38:16;4.80;;;2.00;;
75698;SDS011;64313;51.018;13.742;2024-03-22T10:40:44;5.55;;;2.15;;
75698;SDS011;64313;51.018;13.742;2024-03-22T10:43:16;6.50;;;2.20;;
75698;SDS011;64313;51.018;13.742;2024-03-22T10:45:41;5.03;;;1.80;;
75698;SDS011;64313;51.018;13.742;2024-03-22T10:48:11;5.15;;;1.90;;
75698;SDS011;64313;51.018;13.742;2024-03-22T10:50:40;5.13;;;2.03;;
75698;SDS011;64313;51.018;13.742;2024-03-22T10:53:14;5.03;;;2.00;;
75698;SDS011;64313;51.018;13.742;2024-03-22T10:55:45;4.80;;;1.95;;
75698;SDS011;64313;51.018;13.742;2024-03-22T10:58:15;6.38;;;2.20;;
75698;SDS011;64313;51.018;13.742;2024-03-22T11:00:42;5.40;;;2.08;;
75698;SDS011;64313;51.018;13.742;2024-03-22T11:03:12;7.68;;;2.20;;
75698;SDS011;64313;51.018;13.742;2024-03-22T11:05:44;6.47;;;2.15;;
75698;SDS011;64313;51.018;13.742;2024-03-22T11:08:22;6.18;;;2.20;;
75698;SDS011;64313;51.018;13.742;2024-03-22T11:10:49;6.53;;;2.17;;
75698;SDS011;64313;51.018;13.742;2024-03-22T11:13:15;6.18;;;2.00;;
75698;SDS011;64313;51.018;13.742;2024-03-22T11:15:42;6.68;;;2.30;;
75698;SDS011;64313;51.018;13.742;2024-03-22T11:18:07;5.53;;;1.92;;
75698;SDS011;64313;51.018;13.742;2024-03-22T11:20:35;8.18;;;2.08;;
75698;SDS011;64313;51.018;13.742;2024-03-22T11:23:03;7.50;;;2.10;;
75698;SDS011;64313;51.018;13.742;2024-03-22T11:25:31;6.00;;;2.35;;
75698;SDS011;64313;51.018;13.742;2024-03-22T11:27:56;6.88;;;2.80;;
75698;SDS011;64313;51.018;13.742;2024-03-22T11:30:24;7.22;;;2.67;;
75698;SDS011;64313;51.018;13.742;2024-03-22T11:32:50;7.28;;;2.50;;
75698;SDS011;64313;51.018;13.742;2024-03-22T11:35:16;6.28;;;2.13;;
75698;SDS011;64313;51.018;13.742;2024-03-22T11:37:41;6.65;;;2.78;;
75698;SDS011;64313;51.018;13.742;2024-03-22T11:40:10;6.50;;;2.17;;
75698;SDS011;64313;51.018;13.742;2024-03-22T11:42:38;5.50;;;2.30;;
75698;SDS011;64313;51.018;13.742;2024-03-22T11:45:06;5.55;;;2.38;;
75698;SDS011;64313;51.018;13.742;2024-03-22T11:47:34;7.05;;;2.53;;
75698;SDS011;64313;51.018;13.742;2024-03-22T11:50:01;5.18;;;2.05;;
75698;SDS011;64313;51.018;13.742;2024-03-22T11:52:27;7.55;;;2.58;;
75698;SDS011;64313;51.018;13.742;2024-03-22T11:54:52;5.72;;;2.08;;
75698;SDS011;64313;51.018;13.742;2024-03-22T11:57:20;5.70;;;2.30;;
75698;SDS011;64313;51.018;13.742;2024-03-22T11:59:45;6.60;;;2.60;;
75698;SDS011;64313;51.018;13.742;2024-03-22T12:02:11;7.82;;;2.55;;
75698;SDS011;64313;51.018;13.742;2024-03-22T12:04:40;6.00;;;2.42;;
75698;SDS011;64313;51.018;13.742;2024-03-22T12:07:05;5.28;;;2.20;;
75698;SDS011;64313;51.018;13.742;2024-03-22T12:09:35;5.00;;;2.08;;
75698;SDS011;64313;51.018;13.742;2024-03-22T12:12:00;4.70;;;1.98;;
75698;SDS011;64313;51.018;13.742;2024-03-22T12:14:26;5.65;;;2.25;;
75698;SDS011;64313;51.018;13.742;2024-03-22T12:16:52;5.55;;;2.38;;
75698;SDS011;64313;51.018;13.742;2024-03-22T12:19:17;5.60;;;2.25;;
75698;SDS011;64313;51.018;13.742;2024-03-22T12:21:42;7.07;;;2.30;;
75698;SDS011;64313;51.018;13.742;2024-03-22T12:24:08;6.68;;;2.60;;
75698;SDS011;64313;51.018;13.742;2024-03-22T12:26:33;6.38;;;2.15;;
75698;SDS011;64313;51.018;13.742;2024-03-22T12:28:58;5.68;;;2.20;;
75698;SDS011;64313;51.018;13.742;2024-03-22T12:31:24;6.57;;;2.70;;
75698;SDS011;64313;51.018;13.742;2024-03-22T12:33:49;6.85;;;2.78;;
75698;SDS011;64313;51.018;13.742;2024-03-22T12:36:14;6.60;;;3.05;;
75698;SDS011;64313;51.018;13.742;2024-03-22T12:38:40;6.78;;;2.40;;
75698;SDS011;64313;51.018;13.742;2024-03-22T12:41:05;6.75;;;2.63;;
75698;SDS011;64313;51.018;13.742;2024-03-22T12:43:31;6.75;;;2.53;;
75698;SDS011;64313;51.018;13.742;2024-03-22T12:45:56;5.93;;;2.47;;
75698;SDS011;64313;51.018;13.742;2024-03-22T12:48:21;5.70;;;2.60;;
75698;SDS011;64313;51.018;13.742;2024-03-22T12:50:46;8.32;;;2.60;;
75698;SDS011;64313;51.018;13.742;2024-03-22T12:53:12;8.05;;;2.45;;
75698;SDS011;64313;51.018;13.742;2024-03-22T12:55:37;7.13;;;2.70;;
75698;SDS011;64313;51.018;13.742;2024-03-22T12:58:02;7.13;;;2.67;;
75698;SDS011;64313;51.018;13.742;2024-03-22T13:00:28;7.20;;;2.53;;
75698;SDS011;64313;51.018;13.742;2024-03-22T13:02:54;7.05;;;2.50;;
75698;SDS011;64313;51.018;13.742;2024-03-22T13:05:19;7.97;;;3.13;;
75698;SDS011;64313;51.018;13.742;2024-03-22T13:07:45;6.97;;;2.78;;
75698;SDS011;64313;51.018;13.742;2024-03-22T13:10:10;7.45;;;2.88;;
75698;SDS011;64313;51.018;13.742;2024-03-22T13:12:35;7.85;;;2.90;;
75698;SDS011;64313;51.018;13.742;2024-03-22T13:15:01;7.15;;;2.75;;
75698;SDS011;64313;51.018;13.742;2024-03-22T13:17:27;7.63;;;2.72;;
75698;SDS011;64313;51.018;13.742;2024-03-22T13:19:52;5.65;;;2.35;;
75698;SDS011;64313;51.018;13.742;2024-03-22T13:22:18;7.35;;;2.70;;
75698;SDS011;64313;51.018;13.742;2024-03-22T13:24:46;5.72;;;2.28;;
75698;SDS011;64313;51.018;13.742;2024-03-22T13:27:13;7.28;;;2.95;;
75698;SDS011;64313;51.018;13.742;2024-03-22T13:29:41;6.45;;;2.83;;
75698;SDS011;64313;51.018;13.742;2024-03-22T13:32:07;6.88;;;2.55;;
75698;SDS011;64313;51.018;13.742;2024-03-22T13:34:36;6.97;;;2.50;;
75698;SDS011;64313;51.018;13.742;2024-03-22T13:37:04;6.72;;;2.60;;
75698;SDS011;64313;51.018;13.742;2024-03-22T13:39:31;7.32;;;2.80;;
75698;SDS011;64313;51.018;13.742;2024-03-22T13:41:56;7.57;;;2.90;;
75698;SDS011;64313;51.018;13.742;2024-03-22T13:44:22;8.60;;;3.20;;
75698;SDS011;64313;51.018;13.742;2024-03-22T13:46:49;7.25;;;2.90;;
75698;SDS011;64313;51.018;13.742;2024-03-22T13:49:15;7.82;;;3.15;;
75698;SDS011;64313;51.018;13.742;2024-03-22T13:51:42;6.82;;;2.92;;
75698;SDS011;64313;51.018;13.742;2024-03-22T13:54:07;8.55;;;3.35;;
75698;SDS011;64313;51.018;13.742;2024-03-22T13:56:32;7.65;;;2.90;;
75698;SDS011;64313;51.018;13.742;2024-03-22T13:58:58;7.70;;;3.58;;
75698;SDS011;64313;51.018;13.742;2024-03-22T14:01:23;9.38;;;3.58;;
75698;SDS011;64313;51.018;13.742;2024-03-22T14:03:48;9.23;;;3.47;;
75698;SDS011;64313;51.018;13.742;2024-03-22T14:06:14;7.55;;;3.58;;
75698;SDS011;64313;51.018;13.742;2024-03-22T14:08:39;7.30;;;3.22;;
75698;SDS011;64313;51.018;13.742;2024-03-22T14:11:04;8.95;;;3.95;;
75698;SDS011;64313;51.018;13.742;2024-03-22T14:13:30;8.43;;;3.50;;
75698;SDS011;64313;51.018;13.742;2024-03-22T14:15:55;8.05;;;3.30;;
75698;SDS011;64313;51.018;13.742;2024-03-22T14:18:20;7.80;;;4.03;;
75698;SDS011;64313;51.018;13.742;2024-03-22T14:20:46;8.75;;;3.97;;
75698;SDS011;64313;51.018;13.742;2024-03-22T14:23:11;11.32;;;3.83;;